Time;durP1;ratioP1;P1;durP2;ratioP2;P2;SDS_P1;SDS_P2;PMS_P1;PMS_P2;Temp;Humidity;BMP_temperature;BMP_pressure;BME280_temperature;BME280_humidity;BME280_pressure;Samples;Min_cycle;Max_cycle;Signal;HPM_P1;HPM_P2
2022/12/27 00:02:20;;;;;;;;;;;3.90;99.90;;;;;;8423081;28;19924;-73
2022/12/27 00:06:23;;;;;;;;;;;3.90;99.90;;;;;;8429686;28;20351;-73
2022/12/27 00:10:24;;;;;;;;;;;3.90;99.90;;;;;;8411159;28;19959;-73
2022/12/27 00:14:26;;;;;;;;;;;3.90;99.90;;;;;;8429204;28;20018;-73
2022/12/27 00:18:28;;;;;;;;;;;3.90;99.90;;;;;;8415437;28;19967;-74
2022/12/27 00:22:29;;;;;;;;;;;3.90;99.90;;;;;;8431246;28;19968;-73
2022/12/27 00:26:32;;;;;;;;;;;3.90;99.90;;;;;;8426451;28;19924;-73
2022/12/27 00:30:34;;;;;;;;;;;3.90;99.90;;;;;;8422720;28;19967;-74
2022/12/27 00:34:35;;;;;;;;;;;3.90;99.90;;;;;;8428376;28;19967;-73
2022/12/27 00:38:37;;;;;;;;;;;4.00;99.90;;;;;;8405273;28;19979;-73
2022/12/27 00:42:39;;;;;;;;;;;4.00;99.90;;;;;;8405243;28;19966;-73
2022/12/27 00:46:40;;;;;;;;;;;4.00;99.90;;;;;;8413925;28;19931;-73
2022/12/27 00:50:43;;;;;;;;;;;4.10;99.90;;;;;;8425661;28;19925;-73
2022/12/27 00:54:44;;;;;;;;;;;4.10;99.90;;;;;;8410565;28;19924;-73
2022/12/27 00:58:46;;;;;;;;;;;4.20;99.90;;;;;;8415966;28;19935;-73
2022/12/27 01:02:48;;;;;;;;;;;4.20;99.90;;;;;;8431486;28;19930;-74
2022/12/27 01:06:49;;;;;;;;;;;4.30;99.90;;;;;;8422954;28;19929;-74
2022/12/27 01:10:51;;;;;;;;;;;4.30;99.90;;;;;;8417492;28;19930;-73
2022/12/27 01:14:52;;;;;;;;;;;4.30;99.90;;;;;;8421607;28;19947;-73
2022/12/27 01:18:54;;;;;;;;;;;4.30;99.90;;;;;;8421259;28;19932;-73
2022/12/27 01:22:56;;;;;;;;;;;4.30;99.90;;;;;;8428237;28;19931;-73
2022/12/27 01:26:58;;;;;;;;;;;4.30;99.90;;;;;;8410135;28;19924;-73
2022/12/27 01:31:03;;;;;;;;;;;4.30;99.90;;;;;;8419375;28;19930;-73
2022/12/27 01:35:05;;;;;;;;;;;4.30;99.90;;;;;;8412521;28;19939;-73
2022/12/27 01:39:09;;;;;;;;;;;4.30;99.90;;;;;;8419512;28;19935;-73
2022/12/27 01:43:16;;;;;;;;;;;4.30;99.90;;;;;;8426446;28;19930;-73
2022/12/27 01:47:17;;;;;;;;;;;4.30;99.90;;;;;;8410598;28;19930;-73
2022/12/27 01:51:19;;;;;;;;;;;4.40;99.90;;;;;;8405622;28;19931;-73
2022/12/27 01:55:33;;;;;;;;;;;4.40;99.90;;;;;;8428048;28;20456;-73
2022/12/27 01:59:35;;;;;;;;;;;4.40;99.90;;;;;;8415943;28;19978;-73
2022/12/27 02:03:51;;;;;;;;;;;4.40;99.90;;;;;;8431594;28;19935;-73
2022/12/27 02:08:08;;;;;;;;;;;4.30;99.90;;;;;;8417797;28;19977;-73
2022/12/27 02:12:10;;;;;;;;;;;4.30;99.90;;;;;;8425782;28;19928;-73
2022/12/27 02:16:13;;;;;;;;;;;4.30;99.90;;;;;;8432088;28;20409;-73
2022/12/27 02:20:17;;;;;;;;;;;4.30;99.90;;;;;;8421378;28;19969;-73
2022/12/27 02:24:38;;;;;;;;;;;4.20;99.90;;;;;;8415740;28;19982;-73
2022/12/27 02:28:59;;;;;;;;;;;4.20;99.90;;;;;;8406316;28;19928;-73
2022/12/27 02:33:15;;;;;;;;;;;4.10;99.90;;;;;;8418629;28;19967;-73
2022/12/27 02:37:18;;;;;;;;;;;4.00;99.90;;;;;;8416025;28;20295;-73
2022/12/27 02:54:53;;;;;;;;;;;4.00;99.90;;;;;;8415897;28;19928;-73
2022/12/27 02:59:04;;;;;;;;;;;4.10;99.90;;;;;;8395842;28;19970;-73
2022/12/27 03:03:38;;;;;;;;;;;4.10;99.90;;;;;;8427695;28;19924;-73
2022/12/27 03:07:48;;;;;;;;;;;4.20;99.90;;;;;;8393548;28;20405;-73
2022/12/27 03:16:16;;;;;;;;;;;4.30;99.90;;;;;;8429232;28;20018;-73
2022/12/27 03:33:22;;;;;;;;;;;4.30;99.90;;;;;;8433217;28;19963;-73
2022/12/27 03:46:32;;;;;;;;;;;4.30;99.90;;;;;;8430597;28;20273;-73
2022/12/27 03:50:39;;;;;;;;;;;4.30;99.90;;;;;;8428068;28;19930;-73
2022/12/27 03:54:42;;;;;;;;;;;4.30;99.90;;;;;;8432707;28;20015;-73
2022/12/27 03:58:43;;;;;;;;;;;4.30;99.90;;;;;;8429503;28;19928;-73
2022/12/27 04:02:45;;;;;;;;;;;4.20;99.90;;;;;;8431285;28;19923;-73
2022/12/27 04:06:47;;;;;;;;;;;4.20;99.90;;;;;;8424373;28;19977;-73
2022/12/27 04:36:49;;;;;;;;;;;4.10;99.90;;;;;;8419089;28;19925;-73
2022/12/27 05:02:01;;;;;;;;;;;4.10;99.90;;;;;;8416792;28;20024;-73
2022/12/27 05:03:03;;;;;;;;;;;4.10;99.90;;;;;;8419068;28;19928;-73
2022/12/27 05:15:47;;;;;;;;;;;4.10;99.90;;;;;;8429986;28;19923;-73
2022/12/27 05:19:49;;;;;;;;;;;4.10;99.90;;;;;;8425453;28;19935;-73
2022/12/27 05:28:11;;;;;;;;;;;4.20;99.90;;;;;;8434246;28;19935;-73
2022/12/27 05:32:13;;;;;;;;;;;4.30;99.90;;;;;;8421891;28;19974;-73
2022/12/27 05:36:15;;;;;;;;;;;4.30;99.90;;;;;;8402476;28;19982;-72
2022/12/27 05:40:16;;;;;;;;;;;4.30;99.90;;;;;;8409390;28;19931;-72
2022/12/27 05:44:18;;;;;;;;;;;4.30;99.90;;;;;;8411954;28;19928;-73
2022/12/27 05:48:20;;;;;;;;;;;4.20;99.90;;;;;;8406768;28;19938;-73
2022/12/27 05:52:22;;;;;;;;;;;4.20;99.90;;;;;;8404773;28;19968;-73
2022/12/27 05:56:24;;;;;;;;;;;4.20;99.90;;;;;;8422348;28;20371;-74
2022/12/27 06:00:25;;;;;;;;;;;4.20;99.90;;;;;;8427834;28;19983;-73
2022/12/27 06:04:27;;;;;;;;;;;4.20;99.90;;;;;;8408856;28;19931;-73
2022/12/27 06:08:29;;;;;;;;;;;4.10;99.90;;;;;;8398454;28;19924;-73
2022/12/27 06:12:31;;;;;;;;;;;4.10;99.90;;;;;;8418344;28;19924;-73
2022/12/27 06:16:32;;;;;;;;;;;4.10;99.90;;;;;;8435144;28;20375;-73
2022/12/27 06:20:34;;;;;;;;;;;4.10;99.90;;;;;;8402585;28;19925;-73
2022/12/27 06:24:36;;;;;;;;;;;4.00;99.90;;;;;;8420433;28;19930;-73
2022/12/27 06:28:37;;;;;;;;;;;4.00;99.90;;;;;;8425272;28;20026;-73
2022/12/27 06:32:39;;;;;;;;;;;3.90;99.90;;;;;;8421943;28;19928;-73
2022/12/27 06:36:41;;;;;;;;;;;3.90;99.90;;;;;;8417829;28;19923;-73
2022/12/27 06:40:42;;;;;;;;;;;3.90;99.90;;;;;;8418434;28;20379;-73
2022/12/27 06:44:44;;;;;;;;;;;3.90;99.90;;;;;;8437945;28;19967;-73
2022/12/27 06:48:46;;;;;;;;;;;3.90;99.90;;;;;;8429929;28;20035;-73
2022/12/27 06:52:48;;;;;;;;;;;3.90;99.90;;;;;;8412054;28;20438;-73
2022/12/27 06:56:49;;;;;;;;;;;3.90;99.90;;;;;;8431330;28;19932;-73
2022/12/27 07:00:51;;;;;;;;;;;3.80;99.90;;;;;;8426536;28;19924;-73
2022/12/27 07:04:53;;;;;;;;;;;3.90;99.90;;;;;;8442471;28;19928;-73
2022/12/27 07:08:55;;;;;;;;;;;3.90;99.90;;;;;;8445082;28;19930;-73
2022/12/27 07:12:57;;;;;;;;;;;3.90;99.90;;;;;;8428357;28;20390;-73
2022/12/27 07:16:58;;;;;;;;;;;3.90;99.90;;;;;;8430523;28;20300;-73
2022/12/27 07:21:04;;;;;;;;;;;3.90;99.90;;;;;;8435294;28;20943;-73
2022/12/27 07:25:06;;;;;;;;;;;3.90;99.90;;;;;;8450522;28;20278;-74
2022/12/27 07:29:08;;;;;;;;;;;3.80;99.90;;;;;;8415504;28;19928;-73
2022/12/27 07:33:10;;;;;;;;;;;3.80;99.90;;;;;;8428285;28;19964;-73
2022/12/27 07:37:11;;;;;;;;;;;3.80;99.90;;;;;;8432676;28;19924;-73
2022/12/27 07:41:13;;;;;;;;;;;3.80;99.90;;;;;;8424800;28;19988;-74
2022/12/27 07:45:15;;;;;;;;;;;3.80;99.90;;;;;;8421028;28;19932;-73
2022/12/27 07:49:17;;;;;;;;;;;3.80;99.90;;;;;;8426857;28;19931;-73
2022/12/27 07:53:18;;;;;;;;;;;3.80;99.90;;;;;;8429915;28;19969;-73
2022/12/27 07:57:20;;;;;;;;;;;3.80;99.90;;;;;;8402408;28;20352;-73
2022/12/27 08:01:22;;;;;;;;;;;3.80;99.90;;;;;;8420880;28;20295;-73
2022/12/27 08:05:24;;;;;;;;;;;3.80;99.90;;;;;;8436278;28;19924;-73
2022/12/27 08:09:31;;;;;;;;;;;3.90;99.90;;;;;;8427538;28;19932;-73
2022/12/27 08:13:32;;;;;;;;;;;3.90;99.90;;;;;;8411262;28;20007;-73
2022/12/27 08:17:34;;;;;;;;;;;4.00;99.90;;;;;;8399830;28;19935;-73
2022/12/27 08:21:36;;;;;;;;;;;4.00;99.90;;;;;;8425378;28;19924;-74
2022/12/27 08:25:37;;;;;;;;;;;4.00;99.90;;;;;;8420116;28;19928;-74
2022/12/27 08:29:43;;;;;;;;;;;4.00;99.90;;;;;;8414982;28;19931;-74
2022/12/27 08:33:45;;;;;;;;;;;4.10;99.90;;;;;;8430340;28;19931;-73
2022/12/27 08:37:47;;;;;;;;;;;4.20;99.90;;;;;;8427438;28;19925;-74
2022/12/27 08:41:50;;;;;;;;;;;4.20;99.90;;;;;;8421510;28;20372;-73
2022/12/27 08:45:52;;;;;;;;;;;4.20;99.90;;;;;;8432810;28;19970;-73
2022/12/27 08:49:53;;;;;;;;;;;4.30;99.90;;;;;;8415483;28;20026;-74
2022/12/27 08:53:55;;;;;;;;;;;4.30;99.90;;;;;;8425579;28;19931;-73
2022/12/27 08:57:57;;;;;;;;;;;4.30;99.90;;;;;;8426951;28;19962;-73
2022/12/27 09:01:59;;;;;;;;;;;4.30;99.90;;;;;;8433622;28;19931;-73
2022/12/27 09:06:07;;;;;;;;;;;4.30;99.90;;;;;;8428062;28;20429;-74
2022/12/27 09:10:08;;;;;;;;;;;4.30;99.90;;;;;;8427996;28;19924;-74
2022/12/27 09:14:10;;;;;;;;;;;4.40;99.90;;;;;;8402175;28;19928;-73
2022/12/27 09:18:13;;;;;;;;;;;4.60;99.90;;;;;;8422604;28;19968;-74
2022/12/27 09:22:14;;;;;;;;;;;4.80;99.90;;;;;;8428818;28;20363;-74
2022/12/27 09:26:17;;;;;;;;;;;4.90;99.90;;;;;;8428981;28;20399;-75
2022/12/27 09:30:19;;;;;;;;;;;5.00;99.90;;;;;;8426072;28;19924;-75
2022/12/27 09:34:21;;;;;;;;;;;5.10;99.90;;;;;;8425793;28;19970;-75
2022/12/27 09:38:22;;;;;;;;;;;5.20;99.90;;;;;;8421168;28;20019;-76
2022/12/27 09:42:37;;;;;;;;;;;5.20;99.90;;;;;;8413835;28;20386;-75
2022/12/27 09:47:25;;;;;;;;;;;5.30;99.90;;;;;;8419069;28;19938;-75
2022/12/27 09:51:34;;;;;;;;;;;5.40;99.90;;;;;;8394950;28;19924;-76
2022/12/27 09:55:40;;;;;;;;;;;5.40;99.90;;;;;;8428769;28;19985;-75
2022/12/27 09:59:45;;;;;;;;;;;5.30;99.90;;;;;;8417435;28;19932;-75
2022/12/27 10:03:46;;;;;;;;;;;5.30;99.90;;;;;;8422092;28;20372;-77
2022/12/27 10:07:48;;;;;;;;;;;5.30;99.90;;;;;;8403258;28;19969;-76
2022/12/27 10:12:09;;;;;;;;;;;5.40;99.90;;;;;;8431036;28;19923;-76
2022/12/27 10:16:29;;;;;;;;;;;5.40;99.90;;;;;;8420982;28;20848;-76
2022/12/27 10:20:43;;;;;;;;;;;5.40;99.90;;;;;;8423886;28;20390;-75
2022/12/27 10:24:49;;;;;;;;;;;5.50;99.90;;;;;;8426481;28;19928;-76
2022/12/27 10:28:58;;;;;;;;;;;5.60;99.90;;;;;;8428823;28;19928;-74
2022/12/27 10:32:59;;;;;;;;;;;5.70;99.90;;;;;;8431168;28;20277;-75
2022/12/27 10:37:01;;;;;;;;;;;5.70;99.90;;;;;;8434571;28;19946;-75
2022/12/27 10:41:06;;;;;;;;;;;5.80;99.90;;;;;;8417179;28;20070;-75
2022/12/27 10:45:25;;;;;;;;;;;5.90;99.90;;;;;;8428290;28;19928;-75
2022/12/27 10:49:28;;;;;;;;;;;6.10;99.90;;;;;;8430449;28;19924;-76
2022/12/27 10:53:45;;;;;;;;;;;6.30;99.90;;;;;;8416665;28;19986;-76
2022/12/27 10:57:46;;;;;;;;;;;6.50;99.90;;;;;;8418022;28;19944;-76
2022/12/27 11:02:08;;;;;;;;;;;6.60;99.90;;;;;;8423346;28;19924;-75
2022/12/27 11:06:18;;;;;;;;;;;7.00;99.90;;;;;;8392411;28;19925;-76
2022/12/27 11:10:21;;;;;;;;;;;7.50;99.90;;;;;;8424120;28;19931;-76
2022/12/27 11:14:23;;;;;;;;;;;7.90;99.90;;;;;;8415357;28;19936;-75
2022/12/27 11:18:25;;;;;;;;;;;8.00;99.90;;;;;;8402270;28;19925;-76
2022/12/27 11:22:26;;;;;;;;;;;8.10;99.90;;;;;;8411128;28;20007;-75
2022/12/27 11:26:30;;;;;;;;;;;8.50;99.90;;;;;;8421756;28;20290;-75
2022/12/27 11:30:33;;;;;;;;;;;8.90;99.90;;;;;;8429570;28;19971;-75
2022/12/27 11:34:36;;;;;;;;;;;9.20;99.90;;;;;;8409113;28;19981;-75
2022/12/27 11:38:41;;;;;;;;;;;9.50;99.90;;;;;;8425691;28;20392;-75
2022/12/27 11:42:45;;;;;;;;;;;9.70;99.90;;;;;;8424621;28;19967;-76
2022/12/27 11:47:02;;;;;;;;;;;9.40;99.90;;;;;;8427162;28;20704;-75
2022/12/27 11:51:03;;;;;;;;;;;9.30;99.90;;;;;;8421227;28;19943;-75
2022/12/27 11:55:24;;;;;;;;;;;9.50;99.90;;;;;;8425952;28;20386;-76
2022/12/27 11:59:44;;;;;;;;;;;9.70;99.90;;;;;;8423381;28;19924;-75
2022/12/27 12:03:48;;;;;;;;;;;10.00;99.90;;;;;;8425495;28;19931;-76
2022/12/27 12:08:00;;;;;;;;;;;10.30;99.90;;;;;;8440569;28;19924;-76
2022/12/27 12:12:14;;;;;;;;;;;10.40;99.90;;;;;;8429839;28;20395;-76
2022/12/27 12:16:36;;;;;;;;;;;10.10;99.90;;;;;;8421425;28;20391;-76
2022/12/27 12:20:40;;;;;;;;;;;9.90;99.90;;;;;;8441516;28;19928;-75
2022/12/27 12:24:50;;;;;;;;;;;9.60;99.90;;;;;;8428198;28;20330;-75
2022/12/27 12:28:52;;;;;;;;;;;9.20;99.90;;;;;;8425732;28;19924;-76
2022/12/27 12:33:10;;;;;;;;;;;8.90;99.90;;;;;;8439278;28;21070;-75
2022/12/27 12:37:24;;;;;;;;;;;8.50;99.90;;;;;;8418882;28;19932;-75
2022/12/27 12:41:29;;;;;;;;;;;8.30;99.90;;;;;;8419467;28;19947;-75
2022/12/27 12:45:35;;;;;;;;;;;8.10;99.90;;;;;;8427298;28;20330;-75
2022/12/27 12:49:37;;;;;;;;;;;8.00;99.90;;;;;;8440398;28;19931;-76
2022/12/27 12:53:44;;;;;;;;;;;8.00;99.90;;;;;;8440939;28;19923;-77
2022/12/27 12:58:05;;;;;;;;;;;8.00;99.90;;;;;;8419650;28;19924;-76
2022/12/27 13:02:25;;;;;;;;;;;8.00;99.90;;;;;;8422781;28;20293;-76
2022/12/27 13:06:43;;;;;;;;;;;8.00;99.90;;;;;;8405313;28;20326;-75
2022/12/27 13:10:50;;;;;;;;;;;8.30;99.90;;;;;;8413352;28;19931;-76
2022/12/27 13:14:53;;;;;;;;;;;8.70;99.90;;;;;;8425671;28;19931;-75
2022/12/27 13:18:59;;;;;;;;;;;8.70;99.90;;;;;;8428449;28;20022;-75
2022/12/27 13:23:20;;;;;;;;;;;8.60;99.90;;;;;;8424638;28;20299;-76
2022/12/27 13:27:27;;;;;;;;;;;8.60;99.90;;;;;;8408005;28;19924;-76
2022/12/27 13:31:29;;;;;;;;;;;8.50;99.90;;;;;;8425905;28;19924;-75
2022/12/27 13:35:34;;;;;;;;;;;8.50;99.90;;;;;;8413547;28;21660;-75
2022/12/27 13:39:41;;;;;;;;;;;8.40;99.90;;;;;;8422157;28;19928;-76
2022/12/27 13:43:43;;;;;;;;;;;8.30;99.90;;;;;;8422745;28;19924;-75
2022/12/27 13:47:57;;;;;;;;;;;8.20;99.90;;;;;;8416349;28;19975;-75
2022/12/27 13:52:19;;;;;;;;;;;8.10;99.90;;;;;;8424991;28;19935;-75
2022/12/27 13:56:28;;;;;;;;;;;8.00;99.90;;;;;;8418476;28;19928;-75
2022/12/27 14:01:04;;;;;;;;;;;7.90;99.90;;;;;;8422297;28;19936;-75
2022/12/27 14:05:18;;;;;;;;;;;7.90;99.90;;;;;;8427573;28;19924;-75
2022/12/27 14:09:25;;;;;;;;;;;7.90;99.90;;;;;;8424196;28;20050;-76
2022/12/27 14:13:38;;;;;;;;;;;7.80;99.90;;;;;;8426425;28;20042;-76
2022/12/27 14:17:50;;;;;;;;;;;7.80;99.90;;;;;;8424387;28;20393;-75
2022/12/27 14:22:11;;;;;;;;;;;7.70;99.90;;;;;;8406521;28;20034;-75
2022/12/27 14:26:31;;;;;;;;;;;7.70;99.90;;;;;;8407562;28;19960;-75
2022/12/27 14:30:33;;;;;;;;;;;7.70;99.90;;;;;;8416888;28;19924;-75
2022/12/27 14:34:53;;;;;;;;;;;7.60;99.90;;;;;;8425505;28;19924;-75
2022/12/27 14:39:05;;;;;;;;;;;7.60;99.90;;;;;;8427753;28;20322;-76
2022/12/27 14:43:16;;;;;;;;;;;7.60;99.90;;;;;;8415897;28;20398;-75
2022/12/27 14:47:23;;;;;;;;;;;7.60;99.90;;;;;;8427446;28;19924;-76
2022/12/27 14:51:25;;;;;;;;;;;7.60;99.90;;;;;;8414802;28;20286;-76
2022/12/27 14:55:55;;;;;;;;;;;7.60;99.90;;;;;;8431410;28;19924;-75
2022/12/27 15:00:04;;;;;;;;;;;7.60;99.90;;;;;;8411911;28;20240;-75
2022/12/27 15:04:11;;;;;;;;;;;7.50;99.90;;;;;;8427641;28;19930;-75
2022/12/27 15:08:30;;;;;;;;;;;7.50;99.90;;;;;;8412683;28;19924;-75
2022/12/27 15:12:41;;;;;;;;;;;7.40;99.90;;;;;;8413986;28;19931;-75
2022/12/27 15:17:01;;;;;;;;;;;7.40;99.90;;;;;;8401143;28;19933;-75
2022/12/27 15:21:03;;;;;;;;;;;7.40;99.90;;;;;;8430692;28;20036;-75
2022/12/27 15:25:25;;;;;;;;;;;7.30;99.90;;;;;;8423423;28;19991;-75
2022/12/27 15:29:33;;;;;;;;;;;7.30;99.90;;;;;;8439358;28;19924;-75
2022/12/27 15:33:35;;;;;;;;;;;7.30;99.90;;;;;;8428003;28;20005;-76
2022/12/27 15:37:46;;;;;;;;;;;7.20;99.90;;;;;;8428884;28;20344;-75
2022/12/27 15:41:56;;;;;;;;;;;7.20;99.90;;;;;;8399034;28;19928;-75
2022/12/27 15:46:17;;;;;;;;;;;7.20;99.90;;;;;;8428127;28;19930;-75
2022/12/27 15:50:23;;;;;;;;;;;7.20;99.90;;;;;;8445423;28;20374;-75
2022/12/27 15:54:41;;;;;;;;;;;7.20;99.90;;;;;;8442069;28;20381;-75
2022/12/27 15:59:05;;;;;;;;;;;7.20;99.90;;;;;;8432150;28;20310;-75
2022/12/27 16:03:25;;;;;;;;;;;7.20;99.90;;;;;;8399098;28;19936;-75
2022/12/27 16:07:43;;;;;;;;;;;7.20;99.90;;;;;;8384658;28;19978;-75
2022/12/27 16:12:03;;;;;;;;;;;7.20;99.90;;;;;;8395987;28;19948;-75
2022/12/27 16:16:07;;;;;;;;;;;7.20;99.90;;;;;;8396428;28;19932;-75
2022/12/27 16:20:20;;;;;;;;;;;7.20;99.90;;;;;;8396731;28;20399;-75
2022/12/27 16:24:23;;;;;;;;;;;7.20;99.90;;;;;;8377080;28;19935;-75
2022/12/27 16:28:26;;;;;;;;;;;7.30;99.90;;;;;;8400715;28;19928;-75
2022/12/27 16:32:28;;;;;;;;;;;7.30;99.90;;;;;;8397260;28;20082;-76
2022/12/27 16:36:31;;;;;;;;;;;7.30;99.90;;;;;;8399371;28;19935;-75
2022/12/27 16:40:41;;;;;;;;;;;7.30;99.90;;;;;;8376997;28;19928;-75
2022/12/27 16:44:55;;;;;;;;;;;7.30;99.90;;;;;;8395841;28;19924;-75
2022/12/27 16:49:09;;;;;;;;;;;7.30;99.90;;;;;;8400249;28;20368;-75
2022/12/27 16:53:49;;;;;;;;;;;7.30;99.90;;;;;;8417764;28;19956;-75
2022/12/27 16:57:51;;;;;;;;;;;7.30;99.90;;;;;;8207816;28;19926;-75
2022/12/27 17:01:53;;;;;;;;;;;7.30;99.90;;;;;;8297758;28;19925;-75
2022/12/27 17:05:55;;;;;;;;;;;7.30;99.90;;;;;;8392299;28;20354;-75
2022/12/27 17:10:37;;;;;;;;;;;7.30;99.90;;;;;;8393161;28;19939;-75
2022/12/27 17:14:40;;;;;;;;;;;7.30;99.90;;;;;;8379390;28;21547;-75
2022/12/27 17:18:47;;;;;;;;;;;7.30;99.90;;;;;;8406772;28;19932;-76
2022/12/27 17:22:51;;;;;;;;;;;7.30;99.90;;;;;;8394848;28;20051;-75
2022/12/27 17:27:08;;;;;;;;;;;7.30;99.90;;;;;;8404951;28;19928;-75
2022/12/27 17:31:18;;;;;;;;;;;7.30;99.90;;;;;;8408163;28;19943;-75
2022/12/27 17:35:22;;;;;;;;;;;7.30;99.90;;;;;;8410472;28;19940;-75
2022/12/27 17:39:41;;;;;;;;;;;7.30;99.90;;;;;;8406073;28;19939;-76
2022/12/27 17:48:13;;;;;;;;;;;7.40;99.90;;;;;;8401378;28;19979;-75
2022/12/27 18:01:07;;;;;;;;;;;7.30;99.90;;;;;;8396059;28;19928;-75
2022/12/27 18:05:12;;;;;;;;;;;7.20;99.90;;;;;;8397864;28;19938;-75
2022/12/27 18:09:25;;;;;;;;;;;7.20;99.90;;;;;;8402322;28;20379;-75
2022/12/27 18:13:31;;;;;;;;;;;7.20;99.90;;;;;;8403502;28;19932;-75
2022/12/27 18:17:36;;;;;;;;;;;7.20;99.90;;;;;;8369768;28;19968;-75
2022/12/27 18:21:52;;;;;;;;;;;7.10;99.90;;;;;;8341678;28;19936;-75
2022/12/27 18:26:10;;;;;;;;;;;7.10;99.90;;;;;;8366379;28;20212;-76
2022/12/27 18:45:26;;;;;;;;;;;7.00;99.90;;;;;;8369454;28;19931;-75
2022/12/27 18:49:30;;;;;;;;;;;7.00;99.90;;;;;;8362406;28;19924;-75
2022/12/27 18:53:34;;;;;;;;;;;6.90;99.90;;;;;;8378537;28;19929;-75
2022/12/27 18:57:36;;;;;;;;;;;6.90;99.90;;;;;;8358636;28;19959;-75
2022/12/27 19:01:39;;;;;;;;;;;6.80;99.90;;;;;;8344555;28;19935;-75
2022/12/27 19:06:00;;;;;;;;;;;6.80;99.90;;;;;;8379691;28;19925;-75
2022/12/27 19:10:01;;;;;;;;;;;6.70;99.90;;;;;;8365488;28;19964;-75
2022/12/27 19:14:04;;;;;;;;;;;6.70;99.90;;;;;;8362856;28;20379;-75
2022/12/27 19:18:17;;;;;;;;;;;6.70;99.90;;;;;;8369871;28;19928;-75
2022/12/27 19:22:45;;;;;;;;;;;6.60;99.90;;;;;;8350547;28;19936;-75
2022/12/27 19:26:46;;;;;;;;;;;6.60;99.90;;;;;;8364671;28;20007;-75
2022/12/27 19:31:03;;;;;;;;;;;6.60;99.90;;;;;;8369511;28;19947;-75
2022/12/27 19:35:07;;;;;;;;;;;6.60;99.90;;;;;;8368724;28;20181;-75
2022/12/27 19:39:23;;;;;;;;;;;6.60;99.90;;;;;;8369508;28;19925;-75
2022/12/27 19:43:26;;;;;;;;;;;6.60;99.90;;;;;;8369285;28;19933;-75
2022/12/27 19:47:28;;;;;;;;;;;6.60;99.90;;;;;;8369403;28;19932;-76
2022/12/27 19:51:30;;;;;;;;;;;6.60;99.90;;;;;;8346179;28;19948;-75
2022/12/27 19:55:36;;;;;;;;;;;6.60;99.90;;;;;;8365793;28;19925;-75
2022/12/27 19:59:38;;;;;;;;;;;6.60;99.90;;;;;;8368828;28;20308;-75
2022/12/27 20:03:40;;;;;;;;;;;6.60;99.90;;;;;;8365547;28;19935;-75
2022/12/27 20:07:41;;;;;;;;;;;6.60;99.90;;;;;;8378782;28;19924;-76
2022/12/27 20:11:45;;;;;;;;;;;6.70;99.90;;;;;;8368983;28;19982;-75
2022/12/27 20:15:47;;;;;;;;;;;6.70;99.90;;;;;;8369813;28;19932;-75
2022/12/27 20:19:50;;;;;;;;;;;6.70;99.90;;;;;;8371980;28;19940;-75
2022/12/27 20:23:54;;;;;;;;;;;6.60;99.90;;;;;;8347364;28;19925;-76
2022/12/27 20:27:56;;;;;;;;;;;6.60;99.90;;;;;;8365335;28;19924;-75
2022/12/27 20:31:58;;;;;;;;;;;6.60;99.90;;;;;;8363588;28;19963;-75
2022/12/27 20:36:00;;;;;;;;;;;6.60;99.90;;;;;;8350583;28;20637;-75
2022/12/27 20:40:02;;;;;;;;;;;6.60;99.90;;;;;;8368534;28;19925;-75
2022/12/27 20:44:03;;;;;;;;;;;6.60;99.90;;;;;;8368253;28;20341;-75
2022/12/27 20:48:05;;;;;;;;;;;6.70;99.90;;;;;;8353306;28;20003;-76
2022/12/27 20:52:07;;;;;;;;;;;6.70;99.90;;;;;;8381844;28;19940;-75
2022/12/27 20:56:09;;;;;;;;;;;6.70;99.90;;;;;;8372610;28;20291;-75
2022/12/27 21:00:12;;;;;;;;;;;6.70;99.90;;;;;;8361659;28;19995;-75
2022/12/27 21:04:14;;;;;;;;;;;6.70;99.90;;;;;;8345600;28;19936;-75
2022/12/27 21:08:16;;;;;;;;;;;6.70;99.90;;;;;;8363575;28;19932;-75
2022/12/27 21:12:17;;;;;;;;;;;6.70;99.90;;;;;;8348891;28;20611;-75
2022/12/27 21:16:21;;;;;;;;;;;6.70;99.90;;;;;;8372681;28;20012;-75
2022/12/27 21:20:23;;;;;;;;;;;6.70;99.90;;;;;;8351286;28;19939;-75
2022/12/27 21:24:24;;;;;;;;;;;6.70;99.90;;;;;;8361954;28;19947;-76
2022/12/27 21:28:26;;;;;;;;;;;6.70;99.90;;;;;;8346936;28;20390;-75
2022/12/27 21:32:27;;;;;;;;;;;6.70;99.90;;;;;;8364438;28;19933;-75
2022/12/27 21:36:30;;;;;;;;;;;6.70;99.90;;;;;;8365413;28;20046;-75
2022/12/27 21:40:31;;;;;;;;;;;6.70;99.90;;;;;;8364344;28;19971;-75
2022/12/27 21:44:35;;;;;;;;;;;6.70;99.90;;;;;;8362015;28;20015;-75
2022/12/27 21:48:37;;;;;;;;;;;6.70;99.90;;;;;;8364070;28;20387;-75
2022/12/27 21:52:39;;;;;;;;;;;6.70;99.90;;;;;;8376574;28;19929;-75
2022/12/27 21:56:41;;;;;;;;;;;6.70;99.90;;;;;;8343851;28;19982;-75
2022/12/27 22:00:42;;;;;;;;;;;6.70;99.90;;;;;;8370282;28;20331;-75
2022/12/27 22:04:44;;;;;;;;;;;6.80;99.90;;;;;;8386639;28;19972;-75
2022/12/27 22:08:47;;;;;;;;;;;6.80;99.90;;;;;;8392456;28;19931;-75
2022/12/27 22:12:48;;;;;;;;;;;6.80;99.90;;;;;;8397888;28;19932;-75
2022/12/27 22:16:50;;;;;;;;;;;6.80;99.90;;;;;;8396613;28;20023;-75
2022/12/27 22:20:56;;;;;;;;;;;6.80;99.90;;;;;;8389546;28;20008;-75
2022/12/27 22:24:58;;;;;;;;;;;6.80;99.90;;;;;;8392889;28;19924;-75
2022/12/27 22:29:00;;;;;;;;;;;6.70;99.90;;;;;;8387451;28;20291;-75
2022/12/27 22:33:02;;;;;;;;;;;6.70;99.90;;;;;;8387311;28;19950;-75
2022/12/27 22:37:04;;;;;;;;;;;6.70;99.90;;;;;;8376849;28;19932;-75
2022/12/27 22:41:10;;;;;;;;;;;6.70;99.90;;;;;;8377896;28;19929;-75
2022/12/27 22:45:12;;;;;;;;;;;6.70;99.90;;;;;;8394729;28;19956;-75
2022/12/27 22:49:13;;;;;;;;;;;6.70;99.90;;;;;;8394175;28;19928;-75
2022/12/27 22:53:15;;;;;;;;;;;6.60;99.90;;;;;;8386467;28;20379;-75
2022/12/27 22:57:17;;;;;;;;;;;6.50;99.90;;;;;;8385224;28;20361;-75
2022/12/27 23:01:20;;;;;;;;;;;6.40;99.90;;;;;;8391087;28;19924;-76
2022/12/27 23:05:22;;;;;;;;;;;6.40;99.90;;;;;;8387954;28;19929;-76
2022/12/27 23:09:24;;;;;;;;;;;6.30;99.90;;;;;;8394318;28;20015;-75
2022/12/27 23:13:25;;;;;;;;;;;6.30;99.90;;;;;;8396827;28;19942;-75
2022/12/27 23:27:34;;;;;;;;;;;6.30;99.90;;;;;;8392726;28;19978;-75
2022/12/27 23:31:36;;;;;;;;;;;6.30;99.90;;;;;;8399969;28;19928;-75
2022/12/27 23:35:55;;;;;;;;;;;6.30;99.90;;;;;;8402643;28;19925;-75
2022/12/27 23:39:57;;;;;;;;;;;6.30;99.90;;;;;;8396183;28;20030;-76
2022/12/27 23:43:59;;;;;;;;;;;6.30;99.90;;;;;;8379367;28;19935;-75
2022/12/27 23:48:01;;;;;;;;;;;6.30;99.90;;;;;;8388841;28;20355;-75
2022/12/27 23:52:03;;;;;;;;;;;6.30;99.90;;;;;;8378469;28;19924;-75
2022/12/27 23:56:04;;;;;;;;;;;6.30;99.90;;;;;;8379299;28;19933;-75
